sensor_id;sensor_type;location;lat;lon;timestamp;pressure;altitude;pressure_sealevel;temperature;humidity
29121;BME280;16191;49.548;8.658;2023-03-21T00:00:39;100655.22;;;8.67;100.00
29121;BME280;16191;49.548;8.658;2023-03-21T00:03:06;100651.91;;;8.62;100.00
29121;BME280;16191;49.548;8.658;2023-03-21T00:05:33;100655.44;;;8.59;100.00
29121;BME280;16191;49.548;8.658;2023-03-21T00:08:00;100645.03;;;8.59;100.00
29121;BME280;16191;49.548;8.658;2023-03-21T00:10:28;100648.53;;;8.58;100.00
29121;BME280;16191;49.548;8.658;2023-03-21T00:13:06;100648.47;;;8.59;100.00
29121;BME280;16191;49.548;8.658;2023-03-21T00:15:33;100640.69;;;8.59;100.00
29121;BME280;16191;49.548;8.658;2023-03-21T00:18:20;100643.94;;;8.66;100.00
29121;BME280;16191;49.548;8.658;2023-03-21T00:20:59;100635.44;;;8.61;100.00
29121;BME280;16191;49.548;8.658;2023-03-21T00:23:46;100632.84;;;8.61;100.00
29121;BME280;16191;49.548;8.658;2023-03-21T00:26:13;100627.72;;;8.58;100.00
29121;BME280;16191;49.548;8.658;2023-03-21T00:28:41;100625.19;;;8.55;100.00
29121;BME280;16191;49.548;8.658;2023-03-21T00:31:09;100626.00;;;8.57;100.00
29121;BME280;16191;49.548;8.658;2023-03-21T00:33:35;100622.47;;;8.59;100.00
29121;BME280;16191;49.548;8.658;2023-03-21T00:36:05;100620.72;;;8.60;100.00
29121;BME280;16191;49.548;8.658;2023-03-21T00:38:33;100622.44;;;8.61;100.00
29121;BME280;16191;49.548;8.658;2023-03-21T00:41:03;100615.50;;;8.62;100.00
29121;BME280;16191;49.548;8.658;2023-03-21T00:43:46;100613.81;;;8.59;100.00
29121;BME280;16191;49.548;8.658;2023-03-21T00:46:13;100616.41;;;8.59;100.00
29121;BME280;16191;49.548;8.658;2023-03-21T00:48:40;100610.28;;;8.62;100.00
29121;BME280;16191;49.548;8.658;2023-03-21T00:51:19;100610.28;;;8.62;100.00
29121;BME280;16191;49.548;8.658;2023-03-21T00:53:56;100610.41;;;8.57;100.00
29121;BME280;16191;49.548;8.658;2023-03-21T00:56:26;100604.31;;;8.58;100.00
29121;BME280;16191;49.548;8.658;2023-03-21T00:58:52;100605.28;;;8.54;100.00
29121;BME280;16191;49.548;8.658;2023-03-21T01:01:19;100605.25;;;8.55;100.00
29121;BME280;16191;49.548;8.658;2023-03-21T01:03:46;100602.69;;;8.54;100.00
29121;BME280;16191;49.548;8.658;2023-03-21T01:06:17;100602.88;;;8.46;100.00
29121;BME280;16191;49.548;8.658;2023-03-21T01:08:46;100593.31;;;8.47;100.00
29121;BME280;16191;49.548;8.658;2023-03-21T01:11:21;100601.16;;;8.45;100.00
29121;BME280;16191;49.548;8.658;2023-03-21T01:13:48;100593.25;;;8.50;100.00
29121;BME280;16191;49.548;8.658;2023-03-21T01:16:35;100595.88;;;8.48;100.00
29121;BME280;16191;49.548;8.658;2023-03-21T01:19:04;100587.22;;;8.48;100.00
29121;BME280;16191;49.548;8.658;2023-03-21T01:21:37;100581.97;;;8.49;100.00
29121;BME280;16191;49.548;8.658;2023-03-21T01:24:04;100588.84;;;8.52;100.00
29121;BME280;16191;49.548;8.658;2023-03-21T01:26:31;100589.72;;;8.52;100.00
29121;BME280;16191;49.548;8.658;2023-03-21T01:28:58;100586.22;;;8.53;100.00
29121;BME280;16191;49.548;8.658;2023-03-21T01:31:24;100582.72;;;8.54;100.00
29121;BME280;16191;49.548;8.658;2023-03-21T01:33:51;100572.56;;;8.45;100.00
29121;BME280;16191;49.548;8.658;2023-03-21T01:36:20;100584.47;;;8.54;100.00
29121;BME280;16191;49.548;8.658;2023-03-21T01:38:52;100575.94;;;8.49;100.00
29121;BME280;16191;49.548;8.658;2023-03-21T01:41:24;100582.94;;;8.45;100.00
29121;BME280;16191;49.548;8.658;2023-03-21T01:44:15;100571.00;;;8.40;100.00
29121;BME280;16191;49.548;8.658;2023-03-21T01:49:48;100573.50;;;8.43;100.00
29121;BME280;16191;49.548;8.658;2023-03-21T01:52:36;100571.88;;;8.39;100.00
29121;BME280;16191;49.548;8.658;2023-03-21T01:55:10;100578.78;;;8.40;100.00
29121;BME280;16191;49.548;8.658;2023-03-21T01:57:47;100567.63;;;8.36;100.00
29121;BME280;16191;49.548;8.658;2023-03-21T02:00:38;100574.41;;;8.42;100.00
29121;BME280;16191;49.548;8.658;2023-03-21T02:03:19;100564.00;;;8.42;100.00
29121;BME280;16191;49.548;8.658;2023-03-21T02:09:08;100571.06;;;8.37;100.00
29121;BME280;16191;49.548;8.658;2023-03-21T02:11:37;100559.78;;;8.38;100.00
29121;BME280;16191;49.548;8.658;2023-03-21T02:14:04;100560.66;;;8.37;100.00
29121;BME280;16191;49.548;8.658;2023-03-21T02:28:13;100551.25;;;8.33;100.00
29121;BME280;16191;49.548;8.658;2023-03-21T02:34:09;100537.50;;;8.26;100.00
29121;BME280;16191;49.548;8.658;2023-03-21T02:37:17;100534.78;;;8.31;100.00
29121;BME280;16191;49.548;8.658;2023-03-21T02:40:23;100533.19;;;8.25;100.00
29121;BME280;16191;49.548;8.658;2023-03-21T02:43:12;100540.16;;;8.24;100.00
29121;BME280;16191;49.548;8.658;2023-03-21T02:45:58;100545.38;;;8.23;100.00
29121;BME280;16191;49.548;8.658;2023-03-21T02:48:34;100535.75;;;8.26;100.00
29121;BME280;16191;49.548;8.658;2023-03-21T02:51:19;100538.53;;;8.20;100.00
29121;BME280;16191;49.548;8.658;2023-03-21T02:53:52;100535.13;;;8.18;100.00
29121;BME280;16191;49.548;8.658;2023-03-21T02:56:42;100531.56;;;8.22;100.00
29121;BME280;16191;49.548;8.658;2023-03-21T02:59:10;100539.59;;;8.13;100.00
29121;BME280;16191;49.548;8.658;2023-03-21T03:01:36;100537.78;;;8.17;100.00
29121;BME280;16191;49.548;8.658;2023-03-21T03:04:16;100537.81;;;8.15;100.00
29121;BME280;16191;49.548;8.658;2023-03-21T03:09:38;100538.53;;;8.20;100.00
29121;BME280;16191;49.548;8.658;2023-03-21T03:12:22;100531.69;;;8.18;100.00
29121;BME280;16191;49.548;8.658;2023-03-21T03:15:42;100530.81;;;8.17;100.00
29121;BME280;16191;49.548;8.658;2023-03-21T03:21:13;100523.41;;;8.02;100.00
29121;BME280;16191;49.548;8.658;2023-03-21T03:24:03;100524.16;;;8.07;100.00
29121;BME280;16191;49.548;8.658;2023-03-21T03:26:35;100524.25;;;8.03;100.00
29121;BME280;16191;49.548;8.658;2023-03-21T03:29:06;100525.16;;;8.02;100.00
29121;BME280;16191;49.548;8.658;2023-03-21T03:31:41;100523.56;;;7.98;100.00
29121;BME280;16191;49.548;8.658;2023-03-21T03:34:24;100523.56;;;7.98;100.00
29121;BME280;16191;49.548;8.658;2023-03-21T03:36:58;100515.72;;;7.99;100.00
29121;BME280;16191;49.548;8.658;2023-03-21T03:39:34;100517.44;;;8.00;100.00
29121;BME280;16191;49.548;8.658;2023-03-21T03:42:11;100516.69;;;7.95;100.00
29121;BME280;16191;49.548;8.658;2023-03-21T03:45:00;100520.13;;;7.96;100.00
29121;BME280;16191;49.548;8.658;2023-03-21T03:47:37;100518.69;;;7.84;100.00
29121;BME280;16191;49.548;8.658;2023-03-21T03:50:31;100518.53;;;7.90;100.00
29121;BME280;16191;49.548;8.658;2023-03-21T03:53:27;100520.34;;;7.86;100.00
29121;BME280;16191;49.548;8.658;2023-03-21T03:55:56;100521.09;;;7.91;100.00
29121;BME280;16191;49.548;8.658;2023-03-21T03:58:24;100528.06;;;7.89;100.00
29121;BME280;16191;49.548;8.658;2023-03-21T04:01:08;100521.91;;;7.94;100.00
29121;BME280;16191;49.548;8.658;2023-03-21T04:03:39;100524.56;;;7.92;100.00
29121;BME280;16191;49.548;8.658;2023-03-21T04:06:16;100522.81;;;7.93;100.00
29121;BME280;16191;49.548;8.658;2023-03-21T04:08:43;100520.16;;;7.94;100.00
29121;BME280;16191;49.548;8.658;2023-03-21T04:11:12;100519.53;;;7.84;100.00
29121;BME280;16191;49.548;8.658;2023-03-21T04:13:44;100519.47;;;7.87;100.00
29121;BME280;16191;49.548;8.658;2023-03-21T04:16:18;100522.16;;;7.83;100.00
29121;BME280;16191;49.548;8.658;2023-03-21T04:18:45;100516.00;;;7.87;100.00
29121;BME280;16191;49.548;8.658;2023-03-21T04:21:16;100506.47;;;7.87;100.00
29121;BME280;16191;49.548;8.658;2023-03-21T04:23:43;100508.25;;;7.85;100.00
29121;BME280;16191;49.548;8.658;2023-03-21T04:26:10;100508.31;;;7.82;100.00
29121;BME280;16191;49.548;8.658;2023-03-21T04:28:42;100509.97;;;7.86;100.00
29121;BME280;16191;49.548;8.658;2023-03-21T04:31:20;100509.94;;;7.88;100.00
29121;BME280;16191;49.548;8.658;2023-03-21T04:34:03;100508.28;;;7.84;100.00
29121;BME280;16191;49.548;8.658;2023-03-21T04:36:37;100509.09;;;7.86;100.00
29121;BME280;16191;49.548;8.658;2023-03-21T04:39:06;100510.81;;;7.87;100.00
29121;BME280;16191;49.548;8.658;2023-03-21T04:41:43;100509.09;;;7.86;100.00
29121;BME280;16191;49.548;8.658;2023-03-21T04:44:12;100509.09;;;7.86;100.00
29121;BME280;16191;49.548;8.658;2023-03-21T04:46:39;100508.38;;;7.81;100.00
29121;BME280;16191;49.548;8.658;2023-03-21T04:49:08;100508.25;;;7.85;100.00
29121;BME280;16191;49.548;8.658;2023-03-21T04:51:35;100503.88;;;7.87;100.00
29121;BME280;16191;49.548;8.658;2023-03-21T04:54:06;100509.94;;;7.88;100.00
29121;BME280;16191;49.548;8.658;2023-03-21T04:56:32;100502.25;;;7.83;100.00
29121;BME280;16191;49.548;8.658;2023-03-21T04:59:08;100509.97;;;7.86;100.00
29121;BME280;16191;49.548;8.658;2023-03-21T05:01:35;100504.00;;;7.83;100.00
29121;BME280;16191;49.548;8.658;2023-03-21T05:04:03;100502.31;;;7.80;100.00
29121;BME280;16191;49.548;8.658;2023-03-21T05:06:32;100502.38;;;7.79;100.00
29121;BME280;16191;49.548;8.658;2023-03-21T05:08:59;100499.81;;;7.77;100.00
29121;BME280;16191;49.548;8.658;2023-03-21T05:11:28;100507.69;;;7.74;100.00
29121;BME280;16191;49.548;8.658;2023-03-21T05:13:58;100508.50;;;7.76;100.00
29121;BME280;16191;49.548;8.658;2023-03-21T05:16:25;100502.47;;;7.76;100.00
29121;BME280;16191;49.548;8.658;2023-03-21T05:18:57;100501.69;;;7.72;100.00
29121;BME280;16191;49.548;8.658;2023-03-21T05:21:34;100501.69;;;7.72;100.00
29121;BME280;16191;49.548;8.658;2023-03-21T05:24:16;100499.97;;;7.71;100.00
29121;BME280;16191;49.548;8.658;2023-03-21T05:26:44;100499.16;;;7.69;100.00
29121;BME280;16191;49.548;8.658;2023-03-21T05:29:17;100494.75;;;7.73;100.00
29121;BME280;16191;49.548;8.658;2023-03-21T05:31:51;100492.44;;;7.61;100.00
29121;BME280;16191;49.548;8.658;2023-03-21T05:34:18;100492.28;;;7.67;100.00
29121;BME280;16191;49.548;8.658;2023-03-21T05:36:45;100486.16;;;7.69;100.00
29121;BME280;16191;49.548;8.658;2023-03-21T05:39:12;100492.28;;;7.67;100.00
29121;BME280;16191;49.548;8.658;2023-03-21T05:41:44;100491.44;;;7.66;100.00
29121;BME280;16191;49.548;8.658;2023-03-21T05:44:12;100482.78;;;7.66;100.00
29121;BME280;16191;49.548;8.658;2023-03-21T05:46:38;100487.16;;;7.64;100.00
29121;BME280;16191;49.548;8.658;2023-03-21T05:49:05;100483.59;;;7.68;100.00
29121;BME280;16191;49.548;8.658;2023-03-21T05:51:32;100493.19;;;7.66;100.00
29121;BME280;16191;49.548;8.658;2023-03-21T05:53:59;100489.69;;;7.67;100.00
29121;BME280;16191;49.548;8.658;2023-03-21T05:56:25;100487.16;;;7.64;100.00
29121;BME280;16191;49.548;8.658;2023-03-21T05:58:56;100486.25;;;7.66;100.00
29121;BME280;16191;49.548;8.658;2023-03-21T06:01:23;100490.00;;;7.54;100.00
29121;BME280;16191;49.548;8.658;2023-03-21T06:03:58;100487.13;;;7.65;100.00
29121;BME280;16191;49.548;8.658;2023-03-21T06:06:26;100492.25;;;7.68;100.00
29121;BME280;16191;49.548;8.658;2023-03-21T06:08:55;100493.13;;;7.67;100.00
29121;BME280;16191;49.548;8.658;2023-03-21T06:11:25;100490.63;;;7.64;100.00
29121;BME280;16191;49.548;8.658;2023-03-21T06:14:13;100497.38;;;7.71;100.00
29121;BME280;16191;49.548;8.658;2023-03-21T06:16:41;100499.94;;;7.73;100.00
29121;BME280;16191;49.548;8.658;2023-03-21T06:19:08;100499.88;;;7.76;100.00
29121;BME280;16191;49.548;8.658;2023-03-21T06:21:52;100510.03;;;7.83;100.00
29121;BME280;16191;49.548;8.658;2023-03-21T06:24:20;100501.34;;;7.84;100.00
29121;BME280;16191;49.548;8.658;2023-03-21T06:26:47;100503.81;;;7.90;100.00
29121;BME280;16191;49.548;8.658;2023-03-21T06:29:13;100505.53;;;7.90;100.00
29121;BME280;16191;49.548;8.658;2023-03-21T06:31:45;100501.84;;;8.00;100.00
29121;BME280;16191;49.548;8.658;2023-03-21T06:34:12;100507.53;;;8.13;100.00
29121;BME280;16191;49.548;8.658;2023-03-21T06:36:39;100507.97;;;8.29;100.00
29121;BME280;16191;49.548;8.658;2023-03-21T06:39:06;100506.88;;;8.39;100.00
29121;BME280;16191;49.548;8.658;2023-03-21T06:41:37;100508.19;;;8.53;100.00
29121;BME280;16191;49.548;8.658;2023-03-21T06:44:03;100514.03;;;8.62;100.00
29121;BME280;16191;49.548;8.658;2023-03-21T06:46:36;100504.03;;;8.77;100.00
29121;BME280;16191;49.548;8.658;2023-03-21T06:49:03;100507.50;;;8.78;100.00
29121;BME280;16191;49.548;8.658;2023-03-21T06:51:30;100513.22;;;8.89;100.00
29121;BME280;16191;49.548;8.658;2023-03-21T06:54:05;100505.22;;;8.95;100.00
29121;BME280;16191;49.548;8.658;2023-03-21T06:56:39;100506.00;;;8.99;100.00
29121;BME280;16191;49.548;8.658;2023-03-21T06:59:09;100503.91;;;9.10;100.00
29121;BME280;16191;49.548;8.658;2023-03-21T07:01:59;100512.22;;;9.22;100.00
29121;BME280;16191;49.548;8.658;2023-03-21T07:04:27;100508.56;;;9.28;100.00
29121;BME280;16191;49.548;8.658;2023-03-21T07:06:55;100503.94;;;9.36;100.00
29121;BME280;16191;49.548;8.658;2023-03-21T07:09:21;100504.53;;;9.46;100.00
29121;BME280;16191;49.548;8.658;2023-03-21T07:11:52;100499.31;;;9.46;100.00
29121;BME280;16191;49.548;8.658;2023-03-21T07:14:23;100510.22;;;9.57;100.00
29121;BME280;16191;49.548;8.658;2023-03-21T07:16:50;100513.41;;;9.67;100.00
29121;BME280;16191;49.548;8.658;2023-03-21T07:19:17;100503.56;;;9.75;100.00
29121;BME280;16191;49.548;8.658;2023-03-21T07:21:43;100504.63;;;9.95;100.00
29121;BME280;16191;49.548;8.658;2023-03-21T07:24:10;100506.72;;;10.09;100.00
29121;BME280;16191;49.548;8.658;2023-03-21T07:26:37;100511.16;;;10.07;100.00
29121;BME280;16191;49.548;8.658;2023-03-21T07:29:04;100504.81;;;10.14;100.00
29121;BME280;16191;49.548;8.658;2023-03-21T07:31:31;100501.19;;;10.43;100.00
29121;BME280;16191;49.548;8.658;2023-03-21T07:33:58;100494.44;;;10.61;100.00
29121;BME280;16191;49.548;8.658;2023-03-21T07:36:25;100490.50;;;10.74;100.00
29121;BME280;16191;49.548;8.658;2023-03-21T07:38:51;100499.00;;;10.79;100.00
29121;BME280;16191;49.548;8.658;2023-03-21T07:41:22;100499.88;;;10.80;100.00
29121;BME280;16191;49.548;8.658;2023-03-21T07:43:49;100486.91;;;11.00;100.00
29121;BME280;16191;49.548;8.658;2023-03-21T07:46:17;100491.81;;;11.08;100.00
29121;BME280;16191;49.548;8.658;2023-03-21T07:48:45;100491.22;;;11.23;100.00
29121;BME280;16191;49.548;8.658;2023-03-21T07:51:12;100494.06;;;11.17;100.00
29121;BME280;16191;49.548;8.658;2023-03-21T07:53:38;100495.94;;;11.13;100.00
29121;BME280;16191;49.548;8.658;2023-03-21T07:56:07;100493.69;;;11.26;100.00
29121;BME280;16191;49.548;8.658;2023-03-21T07:58:34;100499.41;;;11.36;99.63
29121;BME280;16191;49.548;8.658;2023-03-21T08:01:01;100504.41;;;11.42;98.99
29121;BME280;16191;49.548;8.658;2023-03-21T08:03:27;100503.50;;;11.43;100.00
29121;BME280;16191;49.548;8.658;2023-03-21T08:05:55;100504.81;;;11.31;100.00
29121;BME280;16191;49.548;8.658;2023-03-21T08:08:22;100502.69;;;11.41;100.00
29121;BME280;16191;49.548;8.658;2023-03-21T08:10:48;100510.47;;;11.42;100.00
29121;BME280;16191;49.548;8.658;2023-03-21T08:13:15;100510.59;;;11.39;99.97
29121;BME280;16191;49.548;8.658;2023-03-21T08:15:42;100510.94;;;11.30;99.86
29121;BME280;16191;49.548;8.658;2023-03-21T08:18:09;100509.19;;;11.52;100.00
29121;BME280;16191;49.548;8.658;2023-03-21T08:20:36;100508.88;;;11.82;99.05
29121;BME280;16191;49.548;8.658;2023-03-21T08:23:03;100500.19;;;12.22;96.88
29121;BME280;16191;49.548;8.658;2023-03-21T08:25:29;100494.19;;;12.39;93.16
29121;BME280;16191;49.548;8.658;2023-03-21T08:27:57;100505.31;;;12.44;90.94
29121;BME280;16191;49.548;8.658;2023-03-21T08:30:25;100500.72;;;12.49;90.55
29121;BME280;16191;49.548;8.658;2023-03-21T08:32:57;100497.16;;;12.31;89.47
29121;BME280;16191;49.548;8.658;2023-03-21T08:35:28;100492.22;;;12.44;84.54
29121;BME280;16191;49.548;8.658;2023-03-21T08:37:55;100495.22;;;12.55;86.21
29121;BME280;16191;49.548;8.658;2023-03-21T08:40:21;100497.16;;;12.70;83.61
29121;BME280;16191;49.548;8.658;2023-03-21T08:42:48;100491.06;;;12.51;82.70
29121;BME280;16191;49.548;8.658;2023-03-21T08:45:16;100490.84;;;12.74;84.89
29121;BME280;16191;49.548;8.658;2023-03-21T08:47:44;100493.53;;;12.73;86.15
29121;BME280;16191;49.548;8.658;2023-03-21T08:50:14;100492.38;;;12.59;85.00
29121;BME280;16191;49.548;8.658;2023-03-21T08:52:41;100485.91;;;12.68;84.17
29121;BME280;16191;49.548;8.658;2023-03-21T08:55:07;100495.19;;;12.36;84.35
29121;BME280;16191;49.548;8.658;2023-03-21T08:57:34;100499.16;;;12.45;83.25
29121;BME280;16191;49.548;8.658;2023-03-21T09:00:04;100497.84;;;12.55;82.84
29121;BME280;16191;49.548;8.658;2023-03-21T09:02:49;100500.66;;;12.50;82.00
29121;BME280;16191;49.548;8.658;2023-03-21T09:05:20;100493.09;;;12.44;82.88
29121;BME280;16191;49.548;8.658;2023-03-21T09:07:48;100498.84;;;12.52;82.83
29121;BME280;16191;49.548;8.658;2023-03-21T09:10:18;100485.72;;;12.33;80.59
29121;BME280;16191;49.548;8.658;2023-03-21T09:12:53;100490.25;;;12.49;80.76
29121;BME280;16191;49.548;8.658;2023-03-21T09:15:21;100490.72;;;12.77;82.83
29121;BME280;16191;49.548;8.658;2023-03-21T09:17:50;100486.16;;;12.99;81.75
29121;BME280;16191;49.548;8.658;2023-03-21T09:20:20;100490.47;;;13.00;79.11
29121;BME280;16191;49.548;8.658;2023-03-21T09:22:57;100492.63;;;12.55;78.49
29121;BME280;16191;49.548;8.658;2023-03-21T09:25:24;100493.25;;;12.97;78.17
29121;BME280;16191;49.548;8.658;2023-03-21T09:27:54;100484.00;;;12.90;80.64
29121;BME280;16191;49.548;8.658;2023-03-21T09:30:21;100483.81;;;13.31;78.89
29121;BME280;16191;49.548;8.658;2023-03-21T09:32:51;100485.53;;;13.32;77.58
29121;BME280;16191;49.548;8.658;2023-03-21T09:35:19;100485.28;;;13.19;78.33
29121;BME280;16191;49.548;8.658;2023-03-21T09:37:47;100486.16;;;12.99;76.99
29121;BME280;16191;49.548;8.658;2023-03-21T09:43:05;100486.47;;;12.93;79.69
29121;BME280;16191;49.548;8.658;2023-03-21T09:45:41;100490.56;;;12.99;81.84
29121;BME280;16191;49.548;8.658;2023-03-21T09:48:23;100489.84;;;13.14;80.51
29121;BME280;16191;49.548;8.658;2023-03-21T09:50:57;100494.25;;;13.14;79.61
29121;BME280;16191;49.548;8.658;2023-03-21T09:53:28;100485.94;;;13.04;78.98
29121;BME280;16191;49.548;8.658;2023-03-21T09:55:58;100487.38;;;12.92;78.37
29121;BME280;16191;49.548;8.658;2023-03-21T09:58:29;100498.06;;;13.07;80.40
29121;BME280;16191;49.548;8.658;2023-03-21T10:01:07;100490.41;;;13.02;82.34
29121;BME280;16191;49.548;8.658;2023-03-21T10:03:36;100485.88;;;13.24;82.00
29121;BME280;16191;49.548;8.658;2023-03-21T10:06:09;100496.84;;;13.14;80.62
29121;BME280;16191;49.548;8.658;2023-03-21T10:08:39;100499.34;;;13.35;79.81
29121;BME280;16191;49.548;8.658;2023-03-21T10:11:14;100493.81;;;13.42;80.45
29121;BME280;16191;49.548;8.658;2023-03-21T10:13:48;100496.19;;;13.46;79.82
29121;BME280;16191;49.548;8.658;2023-03-21T10:16:24;100486.69;;;13.44;78.41
29121;BME280;16191;49.548;8.658;2023-03-21T10:18:53;100490.28;;;13.24;79.06
29121;BME280;16191;49.548;8.658;2023-03-21T10:21:22;100485.53;;;13.32;78.08
29121;BME280;16191;49.548;8.658;2023-03-21T10:24:11;100495.09;;;13.50;77.33
29121;BME280;16191;49.548;8.658;2023-03-21T10:26:39;100492.53;;;13.31;77.48
29121;BME280;16191;49.548;8.658;2023-03-21T10:29:06;100484.47;;;13.53;77.34
29121;BME280;16191;49.548;8.658;2023-03-21T10:31:33;100480.31;;;13.49;77.47
29121;BME280;16191;49.548;8.658;2023-03-21T10:34:03;100478.03;;;13.60;78.31
29121;BME280;16191;49.548;8.658;2023-03-21T10:36:34;100476.03;;;13.83;74.98
29121;BME280;16191;49.548;8.658;2023-03-21T10:39:07;100476.09;;;13.81;76.16
29121;BME280;16191;49.548;8.658;2023-03-21T10:41:38;100468.53;;;13.75;74.80
29121;BME280;16191;49.548;8.658;2023-03-21T10:44:11;100464.44;;;13.69;73.67
29121;BME280;16191;49.548;8.658;2023-03-21T10:46:56;100463.78;;;13.47;73.45
29121;BME280;16191;49.548;8.658;2023-03-21T10:49:24;100455.19;;;13.62;77.29
29121;BME280;16191;49.548;8.658;2023-03-21T10:51:56;100458.75;;;13.61;75.23
29121;BME280;16191;49.548;8.658;2023-03-21T10:54:33;100456.66;;;13.85;76.22
29121;BME280;16191;49.548;8.658;2023-03-21T10:57:07;100452.25;;;13.68;73.95
29121;BME280;16191;49.548;8.658;2023-03-21T10:59:48;100453.63;;;13.76;74.40
29121;BME280;16191;49.548;8.658;2023-03-21T11:02:23;100456.66;;;13.85;77.10
29121;BME280;16191;49.548;8.658;2023-03-21T11:04:52;100452.88;;;13.73;74.37
29121;BME280;16191;49.548;8.658;2023-03-21T11:07:20;100450.41;;;13.53;74.76
29121;BME280;16191;49.548;8.658;2023-03-21T11:09:56;100451.94;;;13.40;76.84
29121;BME280;16191;49.548;8.658;2023-03-21T11:12:34;100460.25;;;13.48;80.69
29121;BME280;16191;49.548;8.658;2023-03-21T11:15:39;100455.56;;;13.37;77.06
29121;BME280;16191;49.548;8.658;2023-03-21T11:18:17;100452.47;;;13.47;82.57
29121;BME280;16191;49.548;8.658;2023-03-21T11:20:52;100453.78;;;13.55;83.48
29121;BME280;16191;49.548;8.658;2023-03-21T11:23:19;100448.53;;;13.38;83.60
29121;BME280;16191;49.548;8.658;2023-03-21T11:25:48;100447.63;;;13.56;79.69
29121;BME280;16191;49.548;8.658;2023-03-21T11:28:20;100446.47;;;13.79;84.53
29121;BME280;16191;49.548;8.658;2023-03-21T11:30:50;100452.50;;;13.81;76.99
29121;BME280;16191;49.548;8.658;2023-03-21T11:33:20;100448.00;;;13.83;79.38
29121;BME280;16191;49.548;8.658;2023-03-21T11:36:01;100438.91;;;13.73;80.78
29121;BME280;16191;49.548;8.658;2023-03-21T11:38:39;100437.41;;;14.02;80.92
29121;BME280;16191;49.548;8.658;2023-03-21T11:41:06;100438.97;;;13.71;76.10
29121;BME280;16191;49.548;8.658;2023-03-21T11:43:38;100444.47;;;13.84;75.72
29121;BME280;16191;49.548;8.658;2023-03-21T11:46:12;100434.34;;;13.77;76.62
29121;BME280;16191;49.548;8.658;2023-03-21T11:48:41;100425.78;;;13.90;76.44
29121;BME280;16191;49.548;8.658;2023-03-21T11:51:45;100431.03;;;13.73;76.45
29121;BME280;16191;49.548;8.658;2023-03-21T12:00:10;100420.84;;;13.67;78.74
29121;BME280;16191;49.548;8.658;2023-03-21T12:03:00;100420.47;;;13.57;73.14
29121;BME280;16191;49.548;8.658;2023-03-21T12:05:39;100415.38;;;13.71;72.06
29121;BME280;16191;49.548;8.658;2023-03-21T12:08:41;100406.41;;;13.93;75.76
29121;BME280;16191;49.548;8.658;2023-03-21T12:11:36;100396.75;;;13.93;75.61
29121;BME280;16191;49.548;8.658;2023-03-21T12:14:21;100391.63;;;13.75;70.67
29121;BME280;16191;49.548;8.658;2023-03-21T12:17:03;100391.63;;;14.07;72.94
29121;BME280;16191;49.548;8.658;2023-03-21T12:19:53;100379.19;;;14.11;71.19
29121;BME280;16191;49.548;8.658;2023-03-21T12:25:36;100367.09;;;14.42;69.31
29121;BME280;16191;49.548;8.658;2023-03-21T12:31:16;100360.25;;;14.22;67.11
29121;BME280;16191;49.548;8.658;2023-03-21T12:34:19;100368.00;;;14.40;65.91
29121;BME280;16191;49.548;8.658;2023-03-21T12:37:02;100358.09;;;14.61;65.91
29121;BME280;16191;49.548;8.658;2023-03-21T12:39:33;100359.28;;;14.56;65.15
29121;BME280;16191;49.548;8.658;2023-03-21T12:45:20;100356.84;;;14.68;65.58
29121;BME280;16191;49.548;8.658;2023-03-21T12:47:53;100342.88;;;14.68;63.35
29121;BME280;16191;49.548;8.658;2023-03-21T12:50:25;100341.56;;;14.91;61.43
29121;BME280;16191;49.548;8.658;2023-03-21T12:52:57;100335.53;;;14.73;61.88
29121;BME280;16191;49.548;8.658;2023-03-21T12:55:31;100340.41;;;15.11;61.47
29121;BME280;16191;49.548;8.658;2023-03-21T12:58:04;100333.56;;;15.08;62.19
29121;BME280;16191;49.548;8.658;2023-03-21T13:00:42;100336.88;;;15.26;61.25
29121;BME280;16191;49.548;8.658;2023-03-21T13:03:29;100326.59;;;15.37;60.63
29121;BME280;16191;49.548;8.658;2023-03-21T13:06:12;100328.16;;;15.25;60.14
29121;BME280;16191;49.548;8.658;2023-03-21T13:11:07;100320.16;;;15.27;60.04
29121;BME280;16191;49.548;8.658;2023-03-21T13:16:36;100319.88;;;14.87;60.10
29121;BME280;16191;49.548;8.658;2023-03-21T13:19:25;100312.25;;;15.13;58.32
29121;BME280;16191;49.548;8.658;2023-03-21T13:24:48;100308.34;;;14.74;58.39
29121;BME280;16191;49.548;8.658;2023-03-21T13:27:27;100308.88;;;14.65;61.21
29121;BME280;16191;49.548;8.658;2023-03-21T13:32:38;100300.97;;;14.81;59.19
29121;BME280;16191;49.548;8.658;2023-03-21T13:37:39;100296.16;;;14.73;59.71
29121;BME280;16191;49.548;8.658;2023-03-21T13:40:23;100292.88;;;14.99;59.46
29121;BME280;16191;49.548;8.658;2023-03-21T13:42:58;100291.94;;;15.00;59.21
29121;BME280;16191;49.548;8.658;2023-03-21T13:45:31;100292.84;;;14.85;59.84
29121;BME280;16191;49.548;8.658;2023-03-21T13:48:03;100288.63;;;14.67;59.87
29121;BME280;16191;49.548;8.658;2023-03-21T13:50:49;100295.97;;;14.76;64.38
29121;BME280;16191;49.548;8.658;2023-03-21T13:53:20;100290.59;;;14.63;60.86
29121;BME280;16191;49.548;8.658;2023-03-21T13:55:57;100294.16;;;14.47;60.55
29121;BME280;16191;49.548;8.658;2023-03-21T14:04:13;100277.13;;;14.38;64.63
29121;BME280;16191;49.548;8.658;2023-03-21T14:06:48;100270.78;;;14.26;69.51
29121;BME280;16191;49.548;8.658;2023-03-21T14:09:29;100269.09;;;14.25;69.44
29121;BME280;16191;49.548;8.658;2023-03-21T14:11:58;100265.69;;;14.39;83.24
29121;BME280;16191;49.548;8.658;2023-03-21T14:14:40;100263.69;;;14.28;79.50
29121;BME280;16191;49.548;8.658;2023-03-21T14:17:22;100257.56;;;14.12;80.64
29121;BME280;16191;49.548;8.658;2023-03-21T14:19:53;100261.28;;;14.08;79.16
29121;BME280;16191;49.548;8.658;2023-03-21T14:22:21;100251.81;;;14.21;82.25
29121;BME280;16191;49.548;8.658;2023-03-21T14:25:12;100255.59;;;14.31;90.23